Time;durP1;ratioP1;P1;durP2;ratioP2;P2;SDS_P1;SDS_P2;PMS_P1;PMS_P2;Temp;Humidity;BMP_temperature;BMP_pressure;BME280_temperature;BME280_humidity;BME280_pressure;Samples;Min_cycle;Max_cycle;Signal;HPM_P1;HPM_P2
2021/11/16 00:02:27;;;;;;;33.70;20.95;;;;;;;;;;5041576;28;20044;-60
2021/11/16 00:05:12;;;;;;;33.65;21.20;;;;;;;;;;5050994;28;20052;-64
2021/11/16 00:07:57;;;;;;;33.05;20.88;;;;;;;;;;5054558;28;20543;-62
2021/11/16 00:10:43;;;;;;;35.42;21.08;;;;;;;;;;5053095;28;20032;-63
2021/11/16 00:13:28;;;;;;;33.53;20.98;;;;;;;;;;5053682;28;20101;-61
2021/11/16 00:16:14;;;;;;;35.08;21.95;;;;;;;;;;5050732;28;20127;-60
2021/11/16 00:19:01;;;;;;;33.67;20.95;;;;;;;;;;5054330;28;20615;-62
2021/11/16 00:21:48;;;;;;;36.28;21.70;;;;;;;;;;5050169;28;20110;-62
2021/11/16 00:24:44;;;;;;;31.52;20.42;;;;;;;;;;5054034;28;20375;-61
2021/11/16 00:27:29;;;;;;;35.72;22.38;;;;;;;;;;5047549;28;20094;-65
2021/11/16 00:30:15;;;;;;;33.50;20.38;;;;;;;;;;5053121;28;20115;-61
2021/11/16 00:33:00;;;;;;;36.08;22.40;;;;;;;;;;5065215;28;20388;-71
2021/11/16 00:35:45;;;;;;;39.40;21.75;;;;;;;;;;5048216;28;20037;-59
2021/11/16 00:38:31;;;;;;;37.08;22.08;;;;;;;;;;5053663;28;20077;-63
2021/11/16 00:41:17;;;;;;;33.38;22.50;;;;;;;;;;5053722;28;20417;-61
2021/11/16 00:44:02;;;;;;;33.30;21.70;;;;;;;;;;5054366;28;20040;-60
2021/11/16 00:46:47;;;;;;;39.55;25.17;;;;;;;;;;5054042;28;20059;-61
2021/11/16 00:49:32;;;;;;;34.08;21.05;;;;;;;;;;5046069;28;20048;-60
2021/11/16 00:52:18;;;;;;;36.50;22.38;;;;;;;;;;5049159;28;20029;-62
2021/11/16 00:55:04;;;;;;;31.80;20.85;;;;;;;;;;5051008;28;20044;-61
2021/11/16 00:57:49;;;;;;;36.50;21.55;;;;;;;;;;5039917;28;20029;-61
2021/11/16 01:00:35;;;;;;;35.25;22.48;;;;;;;;;;5058083;28;20164;-63
2021/11/16 01:03:21;;;;;;;39.90;23.65;;;;;;;;;;5056866;28;20119;-62
2021/11/16 01:06:06;;;;;;;39.35;23.35;;;;;;;;;;5060915;28;20101;-61
2021/11/16 01:08:52;;;;;;;39.17;23.88;;;;;;;;;;5058059;28;20444;-62
2021/11/16 01:11:37;;;;;;;36.97;21.95;;;;;;;;;;5047159;28;20036;-60
2021/11/16 01:14:22;;;;;;;39.30;24.20;;;;;;;;;;5048476;28;20089;-61
2021/11/16 01:17:08;;;;;;;32.63;21.23;;;;;;;;;;5056153;28;20491;-61
2021/11/16 01:19:54;;;;;;;31.40;20.63;;;;;;;;;;5053954;28;20032;-62
2021/11/16 01:22:40;;;;;;;33.90;19.70;;;;;;;;;;5057626;28;20039;-61
2021/11/16 01:25:26;;;;;;;32.70;20.95;;;;;;;;;;5058009;28;20040;-61
2021/11/16 01:28:13;;;;;;;31.38;22.08;;;;;;;;;;5056543;28;20118;-63
2021/11/16 01:31:02;;;;;;;33.78;21.83;;;;;;;;;;5057609;28;20041;-59
2021/11/16 01:33:56;;;;;;;33.15;22.38;;;;;;;;;;5056557;28;20044;-64
2021/11/16 01:36:41;;;;;;;33.22;20.92;;;;;;;;;;5057523;28;20115;-61
2021/11/16 01:39:27;;;;;;;35.88;22.00;;;;;;;;;;5070722;28;20097;-60
2021/11/16 01:42:12;;;;;;;36.33;20.95;;;;;;;;;;5043769;28;20040;-60
2021/11/16 01:44:58;;;;;;;31.70;21.17;;;;;;;;;;5070331;28;20032;-61
2021/11/16 01:47:44;;;;;;;34.60;21.73;;;;;;;;;;5043512;28;20024;-74
2021/11/16 01:50:29;;;;;;;36.08;22.73;;;;;;;;;;5043562;28;20043;-63
2021/11/16 01:53:15;;;;;;;33.35;22.02;;;;;;;;;;5061704;28;20059;-65
2021/11/16 01:56:01;;;;;;;34.20;21.92;;;;;;;;;;5050306;28;20032;-64
2021/11/16 01:58:46;;;;;;;32.60;21.73;;;;;;;;;;5055080;28;20028;-63
2021/11/16 02:01:32;;;;;;;34.85;21.52;;;;;;;;;;5057298;28;20037;-65
2021/11/16 02:04:18;;;;;;;33.65;21.67;;;;;;;;;;5056337;28;20524;-62
2021/11/16 02:07:03;;;;;;;35.13;21.88;;;;;;;;;;5057009;28;20044;-59
2021/11/16 02:09:48;;;;;;;31.90;20.40;;;;;;;;;;5033756;28;20056;-66
2021/11/16 02:12:33;;;;;;;33.72;22.02;;;;;;;;;;5064602;28;20368;-64
2021/11/16 02:15:19;;;;;;;32.30;20.92;;;;;;;;;;5058992;28;20040;-64
2021/11/16 02:18:05;;;;;;;34.80;21.00;;;;;;;;;;5056525;28;20366;-62
2021/11/16 02:20:51;;;;;;;34.45;21.45;;;;;;;;;;5055728;28;20421;-66
2021/11/16 02:23:38;;;;;;;36.40;21.42;;;;;;;;;;5046254;28;20134;-65
2021/11/16 02:26:24;;;;;;;34.50;21.38;;;;;;;;;;5069396;28;20142;-63
2021/11/16 02:29:09;;;;;;;33.67;21.35;;;;;;;;;;5056462;28;20089;-60
2021/11/16 02:31:55;;;;;;;34.58;21.80;;;;;;;;;;5043048;28;20409;-63
2021/11/16 02:34:40;;;;;;;32.15;20.80;;;;;;;;;;5065249;28;20028;-61
2021/11/16 02:37:32;;;;;;;37.55;21.67;;;;;;;;;;5047259;28;20040;-62
2021/11/16 02:40:18;;;;;;;31.23;20.42;;;;;;;;;;5041389;28;20036;-62
2021/11/16 02:43:04;;;;;;;33.20;20.65;;;;;;;;;;5056495;28;20035;-61
2021/11/16 02:45:51;;;;;;;31.25;20.77;;;;;;;;;;5055414;28;20517;-74
2021/11/16 02:48:37;;;;;;;35.33;22.33;;;;;;;;;;5042384;28;20029;-74
2021/11/16 02:51:22;;;;;;;32.80;20.17;;;;;;;;;;5055552;28;20056;-74
2021/11/16 02:54:18;;;;;;;32.72;21.40;;;;;;;;;;5038902;28;20033;-74
2021/11/16 02:57:12;;;;;;;34.03;20.73;;;;;;;;;;5051640;28;20606;-73
2021/11/16 02:59:57;;;;;;;35.42;21.63;;;;;;;;;;5040888;28;20055;-74
2021/11/16 03:02:43;;;;;;;32.97;20.48;;;;;;;;;;5038928;28;20040;-66
2021/11/16 03:05:34;;;;;;;34.72;21.80;;;;;;;;;;5032760;28;20380;-70
2021/11/16 03:08:23;;;;;;;32.17;20.27;;;;;;;;;;5045745;28;20380;-69
2021/11/16 03:11:10;;;;;;;32.78;20.17;;;;;;;;;;5041520;28;20120;-69
2021/11/16 03:13:56;;;;;;;29.92;20.95;;;;;;;;;;5052941;28;20025;-70
2021/11/16 03:16:41;;;;;;;33.05;22.30;;;;;;;;;;5054659;28;20040;-67
2021/11/16 03:19:26;;;;;;;30.73;20.02;;;;;;;;;;5056059;28;20034;-65
2021/11/16 03:22:12;;;;;;;33.10;20.88;;;;;;;;;;5053638;28;20060;-63
2021/11/16 03:24:58;;;;;;;30.63;19.95;;;;;;;;;;5039455;28;20039;-63
2021/11/16 03:27:46;;;;;;;31.63;21.33;;;;;;;;;;5048547;28;20094;-66
2021/11/16 03:30:33;;;;;;;32.95;22.15;;;;;;;;;;5035429;28;20040;-63
2021/11/16 03:33:19;;;;;;;36.95;20.95;;;;;;;;;;5052330;28;20072;-63
2021/11/16 03:36:05;;;;;;;30.35;20.50;;;;;;;;;;5055441;28;20036;-63
2021/11/16 03:38:51;;;;;;;33.25;21.42;;;;;;;;;;5030519;28;20032;-62
2021/11/16 03:41:37;;;;;;;31.23;19.95;;;;;;;;;;5062940;28;20036;-73
2021/11/16 03:44:22;;;;;;;33.85;20.52;;;;;;;;;;5038008;28;20115;-75
2021/11/16 03:47:07;;;;;;;33.70;21.80;;;;;;;;;;5039762;28;20119;-73
2021/11/16 03:49:55;;;;;;;34.30;22.25;;;;;;;;;;5054378;28;20032;-73
2021/11/16 03:52:42;;;;;;;33.47;21.67;;;;;;;;;;5053182;28;20032;-74
2021/11/16 03:55:32;;;;;;;31.33;19.95;;;;;;;;;;5068675;28;20064;-63
2021/11/16 03:58:18;;;;;;;30.33;20.27;;;;;;;;;;5053620;28;20502;-59
2021/11/16 04:01:05;;;;;;;31.73;19.15;;;;;;;;;;5055204;28;20107;-64
2021/11/16 04:03:50;;;;;;;30.90;21.02;;;;;;;;;;5054173;28;20029;-64
2021/11/16 04:06:36;;;;;;;33.85;20.40;;;;;;;;;;5054081;28;20040;-63
2021/11/16 04:09:21;;;;;;;31.70;19.35;;;;;;;;;;5028526;28;20485;-63
2021/11/16 04:12:06;;;;;;;35.08;20.75;;;;;;;;;;5053887;28;20020;-62
2021/11/16 04:14:52;;;;;;;31.08;20.92;;;;;;;;;;5053981;28;20032;-65
2021/11/16 04:17:40;;;;;;;34.20;21.20;;;;;;;;;;5047373;28;20375;-61
2021/11/16 04:20:28;;;;;;;31.77;20.92;;;;;;;;;;5049141;28;20043;-61
2021/11/16 04:23:14;;;;;;;35.28;20.70;;;;;;;;;;5043893;28;20090;-62
2021/11/16 04:25:59;;;;;;;31.67;21.05;;;;;;;;;;5067546;28;20388;-62
2021/11/16 04:28:44;;;;;;;30.45;19.45;;;;;;;;;;5054776;28;20078;-63
2021/11/16 04:31:30;;;;;;;29.33;19.77;;;;;;;;;;5050769;28;20144;-62
2021/11/16 04:34:15;;;;;;;33.65;20.83;;;;;;;;;;5046418;28;20071;-67
2021/11/16 04:37:01;;;;;;;29.33;19.10;;;;;;;;;;5055438;28;20422;-63
2021/11/16 04:39:47;;;;;;;28.95;19.52;;;;;;;;;;5067016;28;20054;-61
2021/11/16 04:42:32;;;;;;;34.50;20.90;;;;;;;;;;5054254;28;20062;-65
2021/11/16 04:45:22;;;;;;;30.77;20.15;;;;;;;;;;5053406;28;20086;-63
2021/11/16 04:48:13;;;;;;;;;;;;;;;;;;5054843;28;20418;-63
2021/11/16 05:02:59;;;;;;;36.75;21.13;;;;;;;;;;4999679;28;20049;-65
2021/11/16 05:05:44;;;;;;;34.78;20.42;;;;;;;;;;5038391;28;20035;-66
2021/11/16 05:08:30;;;;;;;32.00;21.60;;;;;;;;;;5054130;28;20039;-66
2021/11/16 05:11:16;;;;;;;34.15;21.08;;;;;;;;;;5044574;28;20057;-61
2021/11/16 05:14:02;;;;;;;31.40;21.65;;;;;;;;;;5051875;28;20047;-61
2021/11/16 05:16:47;;;;;;;33.42;21.23;;;;;;;;;;5066963;28;20173;-59
2021/11/16 05:19:32;;;;;;;32.90;20.90;;;;;;;;;;5027902;28;20385;-62
2021/11/16 05:22:17;;;;;;;33.97;21.13;;;;;;;;;;5046951;28;20055;-62
2021/11/16 05:25:03;;;;;;;34.05;22.50;;;;;;;;;;5041115;28;20395;-61
2021/11/16 05:27:49;;;;;;;34.42;21.88;;;;;;;;;;5052770;28;20040;-61
2021/11/16 05:30:35;;;;;;;35.85;20.95;;;;;;;;;;5062472;28;20044;-60
2021/11/16 05:33:22;;;;;;;34.80;21.23;;;;;;;;;;5051263;28;20056;-62
2021/11/16 05:36:07;;;;;;;39.03;21.95;;;;;;;;;;5057449;28;20487;-65
2021/11/16 05:38:53;;;;;;;32.58;19.20;;;;;;;;;;5057787;28;20037;-61
2021/11/16 05:41:39;;;;;;;32.58;21.15;;;;;;;;;;5057475;28;20025;-60
2021/11/16 05:44:24;;;;;;;30.48;19.83;;;;;;;;;;5045561;28;20032;-64
2021/11/16 05:47:09;;;;;;;29.65;20.75;;;;;;;;;;5043005;28;20036;-64
2021/11/16 05:49:54;;;;;;;33.25;19.77;;;;;;;;;;5053255;28;20066;-60
2021/11/16 05:52:40;;;;;;;32.78;19.98;;;;;;;;;;5036816;28;20459;-60
2021/11/16 05:55:26;;;;;;;29.90;19.92;;;;;;;;;;5049619;28;20494;-61
2021/11/16 05:58:15;;;;;;;34.30;21.17;;;;;;;;;;5055790;28;20055;-59
2021/11/16 06:01:01;;;;;;;33.88;20.52;;;;;;;;;;5071249;28;20040;-61
2021/11/16 06:03:51;;;;;;;30.08;19.55;;;;;;;;;;5055980;28;20502;-58
2021/11/16 06:06:38;;;;;;;28.10;17.92;;;;;;;;;;5056826;28;20043;-61
2021/11/16 06:09:26;;;;;;;30.65;19.13;;;;;;;;;;5035234;28;20460;-61
2021/11/16 06:12:11;;;;;;;31.13;19.33;;;;;;;;;;5045816;28;20032;-63
2021/11/16 06:14:57;;;;;;;31.55;19.70;;;;;;;;;;5055754;28;20490;-62
2021/11/16 06:17:44;;;;;;;34.58;20.63;;;;;;;;;;5056922;28;20108;-62
2021/11/16 06:20:30;;;;;;;31.73;20.27;;;;;;;;;;5056412;28;20028;-61
2021/11/16 06:23:15;;;;;;;30.98;18.92;;;;;;;;;;5056964;28;20028;-74
2021/11/16 06:26:01;;;;;;;30.65;19.10;;;;;;;;;;5042825;28;20036;-62
2021/11/16 06:28:47;;;;;;;36.53;20.55;;;;;;;;;;5055382;28;20048;-67
2021/11/16 06:31:33;;;;;;;32.83;18.27;;;;;;;;;;5064383;28;20029;-67
2021/11/16 06:34:18;;;;;;;29.75;19.85;;;;;;;;;;5055434;28;20366;-62
2021/11/16 06:37:03;;;;;;;29.30;20.13;;;;;;;;;;5044282;28;20119;-64
2021/11/16 06:39:49;;;;;;;75.47;52.80;;;;;;;;;;5055466;28;20024;-63
2021/11/16 06:42:35;;;;;;;33.83;23.58;;;;;;;;;;5056118;28;20025;-63
2021/11/16 06:45:21;;;;;;;30.52;20.85;;;;;;;;;;5068573;28;20382;-75
2021/11/16 06:48:06;;;;;;;27.48;18.65;;;;;;;;;;5056164;28;20078;-73
2021/11/16 06:50:52;;;;;;;26.98;18.42;;;;;;;;;;5049138;28;20071;-73
2021/11/16 06:53:38;;;;;;;24.98;16.38;;;;;;;;;;5054203;28;20161;-76
2021/11/16 06:56:25;;;;;;;25.27;18.45;;;;;;;;;;5049272;28;20525;-74
2021/11/16 06:59:10;;;;;;;25.92;17.35;;;;;;;;;;5037463;28;20066;-74
2021/11/16 07:01:56;;;;;;;23.73;16.17;;;;;;;;;;5018843;28;20057;-68
2021/11/16 07:04:41;;;;;;;24.88;16.17;;;;;;;;;;5042350;28;20097;-67
2021/11/16 07:07:27;;;;;;;43.95;29.73;;;;;;;;;;5041792;28;20032;-68
2021/11/16 07:10:15;;;;;;;30.67;20.35;;;;;;;;;;5054243;28;20530;-67
2021/11/16 07:13:08;;;;;;;28.60;19.20;;;;;;;;;;5069642;28;20036;-68
2021/11/16 07:15:53;;;;;;;26.25;16.85;;;;;;;;;;5039630;28;20988;-69
2021/11/16 07:18:47;;;;;;;23.13;16.80;;;;;;;;;;5055963;28;20093;-69
2021/11/16 07:21:41;;;;;;;29.77;17.88;;;;;;;;;;5051959;28;20399;-76
2021/11/16 07:24:28;;;;;;;24.75;17.00;;;;;;;;;;5051081;28;20024;-75
2021/11/16 07:27:14;;;;;;;28.92;17.95;;;;;;;;;;5054290;28;20449;-74
2021/11/16 07:30:00;;;;;;;23.92;16.98;;;;;;;;;;5054284;28;20071;-74
2021/11/16 07:32:52;;;;;;;25.73;16.65;;;;;;;;;;5054271;28;20195;-75
2021/11/16 07:35:39;;;;;;;24.50;16.95;;;;;;;;;;5055508;28;20032;-75
2021/11/16 07:38:24;;;;;;;24.33;17.42;;;;;;;;;;5054723;28;20402;-65
2021/11/16 07:41:09;;;;;;;25.58;17.00;;;;;;;;;;5051566;28;20040;-62
2021/11/16 07:43:54;;;;;;;23.30;15.88;;;;;;;;;;5054867;28;20024;-62
2021/11/16 07:46:49;;;;;;;25.75;18.10;;;;;;;;;;5054732;28;20060;-63
2021/11/16 07:49:47;;;;;;;25.25;17.52;;;;;;;;;;5056231;28;20185;-61
2021/11/16 07:52:32;;;;;;;26.60;17.10;;;;;;;;;;5042716;28;20070;-61
2021/11/16 07:55:19;;;;;;;25.90;16.95;;;;;;;;;;5042088;28;20448;-62
2021/11/16 07:58:09;;;;;;;23.42;15.82;;;;;;;;;;5042557;28;20037;-61
2021/11/16 08:00:54;;;;;;;26.50;18.25;;;;;;;;;;5039903;28;20098;-59
2021/11/16 08:03:47;;;;;;;25.40;16.65;;;;;;;;;;5054190;28;20426;-58
2021/11/16 08:06:38;;;;;;;25.73;16.63;;;;;;;;;;5055038;28;20535;-59
2021/11/16 08:15:38;;;;;;;27.90;17.02;;;;;;;;;;5004428;28;20141;-62
2021/11/16 08:18:23;;;;;;;28.55;18.05;;;;;;;;;;4990845;28;20029;-60
2021/11/16 08:21:09;;;;;;;26.27;17.13;;;;;;;;;;4990143;28;20129;-64
2021/11/16 08:23:54;;;;;;;28.40;17.95;;;;;;;;;;4984472;28;20037;-60
2021/11/16 08:26:41;;;;;;;28.65;19.30;;;;;;;;;;5006376;28;20072;-61
2021/11/16 08:29:36;;;;;;;32.75;20.15;;;;;;;;;;4991785;28;20033;-61
2021/11/16 08:32:23;;;;;;;30.60;18.63;;;;;;;;;;4992552;28;20555;-61
2021/11/16 08:35:16;;;;;;;28.27;17.90;;;;;;;;;;4991920;28;20588;-65
2021/11/16 08:38:03;;;;;;;29.95;18.13;;;;;;;;;;4979412;28;20057;-63
2021/11/16 08:40:55;;;;;;;28.73;18.33;;;;;;;;;;4992031;28;20046;-65
2021/11/16 08:43:40;;;;;;;28.38;18.92;;;;;;;;;;4992801;28;20556;-66
2021/11/16 08:46:29;;;;;;;28.60;18.27;;;;;;;;;;5027856;28;20047;-64
2021/11/16 08:49:31;;;;;;;28.35;17.95;;;;;;;;;;5053002;28;20048;-62
2021/11/16 08:52:16;;;;;;;32.92;18.40;;;;;;;;;;5042606;28;20036;-59
2021/11/16 08:55:06;;;;;;;28.45;18.65;;;;;;;;;;5050954;28;20039;-66
2021/11/16 08:57:52;;;;;;;29.58;18.83;;;;;;;;;;5059308;28;20067;-67
2021/11/16 09:00:43;;;;;;;31.55;19.17;;;;;;;;;;5039348;28;20112;-67
2021/11/16 09:03:30;;;;;;;29.42;19.38;;;;;;;;;;5054203;28;20041;-66
2021/11/16 09:06:17;;;;;;;27.13;15.80;;;;;;;;;;5064633;28;20036;-66
2021/11/16 09:09:10;;;;;;;23.15;15.25;;;;;;;;;;5056593;28;20032;-63
2021/11/16 09:11:55;;;;;;;23.50;14.88;;;;;;;;;;5056528;28;20039;-65
2021/11/16 09:14:50;;;;;;;74.05;45.72;;;;;;;;;;5057787;28;20035;-63
2021/11/16 09:17:36;;;;;;;27.00;17.35;;;;;;;;;;5057384;28;20103;-64
2021/11/16 09:20:23;;;;;;;23.05;12.52;;;;;;;;;;5057020;28;20051;-66
2021/11/16 09:23:18;;;;;;;19.02;11.93;;;;;;;;;;5046670;28;20090;-63
2021/11/16 09:26:09;;;;;;;23.30;12.52;;;;;;;;;;5056809;28;20056;-63
2021/11/16 09:29:05;;;;;;;16.17;10.23;;;;;;;;;;5071714;28;20475;-62
2021/11/16 09:31:54;;;;;;;18.08;11.10;;;;;;;;;;5049717;28;20033;-60
2021/11/16 09:34:41;;;;;;;16.70;9.98;;;;;;;;;;5054629;28;20032;-60
2021/11/16 09:37:28;;;;;;;16.73;10.52;;;;;;;;;;5057206;28;20048;-61
2021/11/16 09:40:18;;;;;;;17.13;9.77;;;;;;;;;;5057394;28;20115;-60
2021/11/16 09:43:04;;;;;;;14.45;8.55;;;;;;;;;;5055011;28;20143;-60
2021/11/16 09:45:50;;;;;;;16.05;9.70;;;;;;;;;;5051683;28;20373;-59
2021/11/16 09:48:37;;;;;;;16.73;9.93;;;;;;;;;;5050775;28;20463;-69
2021/11/16 09:51:22;;;;;;;15.35;10.18;;;;;;;;;;5054094;28;20447;-66
2021/11/16 09:54:09;;;;;;;17.08;9.60;;;;;;;;;;5044412;28;20050;-67
2021/11/16 09:57:03;;;;;;;19.27;10.30;;;;;;;;;;5052845;28;20063;-67
2021/11/16 09:59:49;;;;;;;18.38;10.50;;;;;;;;;;5057407;28;20048;-66
2021/11/16 10:02:35;;;;;;;16.38;10.75;;;;;;;;;;5054641;28;20024;-67
2021/11/16 10:05:22;;;;;;;19.02;10.60;;;;;;;;;;5056961;28;20577;-63
2021/11/16 10:08:09;;;;;;;18.30;10.13;;;;;;;;;;5055939;28;20040;-62
2021/11/16 10:10:56;;;;;;;16.23;10.00;;;;;;;;;;5064757;28;20029;-64
2021/11/16 10:13:41;;;;;;;38.85;28.08;;;;;;;;;;5050988;28;20080;-61
2021/11/16 10:16:27;;;;;;;35.83;24.17;;;;;;;;;;5047189;28;20040;-61
2021/11/16 10:19:12;;;;;;;18.75;11.52;;;;;;;;;;5052349;28;20024;-61
2021/11/16 10:21:57;;;;;;;16.85;9.27;;;;;;;;;;5065215;28;20045;-60
2021/11/16 10:24:45;;;;;;;14.27;8.38;;;;;;;;;;5052905;28;20152;-65
2021/11/16 10:27:32;;;;;;;15.48;8.77;;;;;;;;;;5036659;28;20562;-63
2021/11/16 10:30:21;;;;;;;14.88;8.70;;;;;;;;;;5038194;28;20044;-63
2021/11/16 10:33:12;;;;;;;15.25;8.60;;;;;;;;;;5053154;28;20391;-63
2021/11/16 10:36:02;;;;;;;14.85;8.15;;;;;;;;;;5048785;28;20507;-64
2021/11/16 10:38:51;;;;;;;15.48;8.85;;;;;;;;;;5051668;28;20033;-64
2021/11/16 10:41:38;;;;;;;15.48;7.75;;;;;;;;;;5070463;28;20375;-59
2021/11/16 10:44:23;;;;;;;14.57;8.52;;;;;;;;;;5055257;28;20499;-63
2021/11/16 10:47:08;;;;;;;15.30;8.35;;;;;;;;;;5029119;28;20033;-63
2021/11/16 10:49:54;;;;;;;13.90;7.65;;;;;;;;;;5065402;28;20033;-63
2021/11/16 10:52:39;;;;;;;14.10;8.38;;;;;;;;;;5056565;28;20032;-62
2021/11/16 10:55:54;;;;;;;15.85;8.15;;;;;;;;;;5068447;28;20021;-64
2021/11/16 10:58:40;;;;;;;13.27;8.43;;;;;;;;;;5035170;28;20669;-66
2021/11/16 11:01:25;;;;;;;15.15;8.50;;;;;;;;;;5029098;28;20049;-59
2021/11/16 11:04:14;;;;;;;15.02;9.15;;;;;;;;;;5036380;28;20101;-60
2021/11/16 11:07:09;;;;;;;18.92;11.43;;;;;;;;;;5051687;28;20092;-61
2021/11/16 11:09:58;;;;;;;13.15;7.53;;;;;;;;;;5066297;28;20037;-60
2021/11/16 11:12:43;;;;;;;15.18;7.72;;;;;;;;;;5069762;28;20445;-60
2021/11/16 11:15:32;;;;;;;14.05;8.38;;;;;;;;;;5064548;28;20060;-59
2021/11/16 11:18:50;;;;;;;12.23;6.80;;;;;;;;;;5036225;28;20036;-62
2021/11/16 11:21:38;;;;;;;15.50;8.13;;;;;;;;;;5045298;28;20370;-69
2021/11/16 11:24:43;;;;;;;13.93;7.72;;;;;;;;;;5055506;28;20044;-68
2021/11/16 11:27:41;;;;;;;13.43;8.20;;;;;;;;;;5062787;28;20039;-68
2021/11/16 11:30:30;;;;;;;13.93;7.93;;;;;;;;;;5052332;28;20071;-69
2021/11/16 11:33:16;;;;;;;13.10;7.93;;;;;;;;;;5055739;28;20046;-67
2021/11/16 11:36:17;;;;;;;13.70;7.93;;;;;;;;;;5034723;28;20033;-59
2021/11/16 11:39:13;;;;;;;11.85;7.18;;;;;;;;;;5045326;28;20039;-69
2021/11/16 11:41:59;;;;;;;13.23;7.43;;;;;;;;;;5054441;28;20039;-68
2021/11/16 11:45:07;;;;;;;17.48;10.70;;;;;;;;;;5055174;28;20373;-69
2021/11/16 11:47:58;;;;;;;15.93;9.73;;;;;;;;;;5067460;28;20391;-67
2021/11/16 11:51:11;;;;;;;12.95;7.70;;;;;;;;;;5054146;28;20040;-67
2021/11/16 11:53:56;;;;;;;11.13;6.25;;;;;;;;;;5055217;28;20036;-67
2021/11/16 11:56:41;;;;;;;11.20;6.75;;;;;;;;;;5053719;28;20024;-74
2021/11/16 11:59:27;;;;;;;10.77;6.28;;;;;;;;;;5055013;28;20356;-71
2021/11/16 12:02:14;;;;;;;11.15;6.45;;;;;;;;;;5053774;28;20040;-71
2021/11/16 12:04:59;;;;;;;11.93;7.00;;;;;;;;;;5049031;28;20127;-68
2021/11/16 12:07:45;;;;;;;14.07;7.63;;;;;;;;;;5043010;28;20415;-67
2021/11/16 12:10:34;;;;;;;11.23;6.47;;;;;;;;;;5044826;28;20028;-67
2021/11/16 12:13:25;;;;;;;10.20;5.82;;;;;;;;;;5045598;28;20051;-68
2021/11/16 12:16:10;;;;;;;9.50;6.07;;;;;;;;;;5042527;28;20051;-69
2021/11/16 12:19:06;;;;;;;11.07;6.43;;;;;;;;;;5054050;28;20085;-69
2021/11/16 12:21:51;;;;;;;10.73;6.38;;;;;;;;;;5038170;28;20079;-70
2021/11/16 12:24:37;;;;;;;11.25;6.53;;;;;;;;;;5039911;28;20118;-69
2021/11/16 12:27:28;;;;;;;10.57;6.30;;;;;;;;;;5054546;28;20491;-68
2021/11/16 12:30:19;;;;;;;9.05;5.78;;;;;;;;;;5051013;28;20140;-69
2021/11/16 12:33:05;;;;;;;9.88;5.85;;;;;;;;;;5050420;28;20379;-60
2021/11/16 12:35:50;;;;;;;10.48;6.40;;;;;;;;;;5040736;28;20029;-63
2021/11/16 12:38:37;;;;;;;13.57;6.45;;;;;;;;;;5053091;28;20459;-66
2021/11/16 12:41:33;;;;;;;11.30;6.10;;;;;;;;;;5054378;28;20048;-63
2021/11/16 12:44:41;;;;;;;11.77;6.60;;;;;;;;;;5053766;28;20098;-66
2021/11/16 12:47:27;;;;;;;11.38;6.30;;;;;;;;;;5068182;28;20471;-63
2021/11/16 12:50:13;;;;;;;10.77;6.15;;;;;;;;;;5052305;28;20032;-68
2021/11/16 12:52:59;;;;;;;11.60;6.32;;;;;;;;;;5054060;28;20515;-64
2021/11/16 12:55:51;;;;;;;10.07;5.97;;;;;;;;;;5053126;28;20039;-64
2021/11/16 12:58:47;;;;;;;9.57;6.03;;;;;;;;;;5049859;28;20032;-63
2021/11/16 13:01:43;;;;;;;10.98;6.60;;;;;;;;;;5053970;28;20524;-64
2021/11/16 13:04:45;;;;;;;11.80;6.43;;;;;;;;;;5052602;28;20040;-64
2021/11/16 13:07:30;;;;;;;12.55;7.15;;;;;;;;;;5055239;28;20040;-71
2021/11/16 13:10:17;;;;;;;11.93;6.15;;;;;;;;;;5030664;28;20033;-60
2021/11/16 13:13:13;;;;;;;10.85;6.28;;;;;;;;;;5053998;28;20036;-75
2021/11/16 13:16:00;;;;;;;20.08;15.15;;;;;;;;;;5046831;28;20027;-74
2021/11/16 13:18:53;;;;;;;53.50;34.90;;;;;;;;;;5048483;28;20041;-73
2021/11/16 13:21:40;;;;;;;24.38;14.00;;;;;;;;;;5044929;28;20175;-74
2021/11/16 13:24:36;;;;;;;11.98;7.28;;;;;;;;;;5042469;28;20040;-76
2021/11/16 13:27:42;;;;;;;14.43;6.35;;;;;;;;;;5043824;28;20116;-62
2021/11/16 13:30:27;;;;;;;11.10;6.40;;;;;;;;;;5045779;28;20029;-64
2021/11/16 13:33:31;;;;;;;11.25;6.70;;;;;;;;;;5054041;28;20029;-63
2021/11/16 13:36:36;;;;;;;14.35;8.00;;;;;;;;;;5052983;28;20033;-62
2021/11/16 13:39:21;;;;;;;11.77;7.30;;;;;;;;;;5054135;28;20424;-63
2021/11/16 13:42:16;;;;;;;13.43;7.43;;;;;;;;;;5053028;28;20513;-62
2021/11/16 13:45:04;;;;;;;17.35;9.13;;;;;;;;;;5053608;28;20052;-69
2021/11/16 13:47:52;;;;;;;13.82;8.10;;;;;;;;;;5052954;28;20521;-61
2021/11/16 13:50:37;;;;;;;12.88;6.80;;;;;;;;;;5053122;28;20167;-60
2021/11/16 13:53:22;;;;;;;13.07;7.40;;;;;;;;;;5049711;28;20036;-61
2021/11/16 13:56:14;;;;;;;13.32;8.02;;;;;;;;;;5062838;28;20544;-62
2021/11/16 13:59:10;;;;;;;13.10;8.40;;;;;;;;;;5029380;28;20044;-62
2021/11/16 14:02:00;;;;;;;10.32;6.90;;;;;;;;;;5055476;28;20341;-62
2021/11/16 14:04:52;;;;;;;10.52;6.72;;;;;;;;;;5057172;28;20395;-60
2021/11/16 14:07:37;;;;;;;11.57;6.82;;;;;;;;;;5056350;28;20032;-66
2021/11/16 14:10:26;;;;;;;13.23;7.32;;;;;;;;;;5068615;28;20051;-64
2021/11/16 14:13:14;;;;;;;14.25;7.32;;;;;;;;;;5049784;28;20043;-61
2021/11/16 14:16:02;;;;;;;11.82;6.78;;;;;;;;;;5056849;28;20369;-62
2021/11/16 14:18:47;;;;;;;12.35;7.05;;;;;;;;;;5055374;28;20465;-62
2021/11/16 14:21:36;;;;;;;13.60;6.82;;;;;;;;;;5054114;28;20036;-61
2021/11/16 14:24:27;;;;;;;11.23;6.57;;;;;;;;;;5070122;28;20396;-61
2021/11/16 14:27:13;;;;;;;12.80;7.30;;;;;;;;;;5055520;28;20059;-66
2021/11/16 14:30:09;;;;;;;13.48;7.75;;;;;;;;;;5045091;28;20028;-61
2021/11/16 14:33:20;;;;;;;11.52;6.30;;;;;;;;;;5054890;28;20028;-61
2021/11/16 14:36:06;;;;;;;12.70;7.38;;;;;;;;;;5029041;28;20021;-63
2021/11/16 14:38:51;;;;;;;13.13;7.13;;;;;;;;;;5055812;28;20039;-62
2021/11/16 14:41:44;;;;;;;11.77;6.80;;;;;;;;;;5056462;28;20119;-66
2021/11/16 14:44:37;;;;;;;12.82;7.57;;;;;;;;;;5055824;28;20082;-64
2021/11/16 14:47:28;;;;;;;14.68;6.32;;;;;;;;;;5056388;28;20372;-62
2021/11/16 14:50:23;;;;;;;13.20;6.60;;;;;;;;;;5054599;28;20532;-63
2021/11/16 14:53:14;;;;;;;12.05;7.20;;;;;;;;;;5055887;28;20036;-63
2021/11/16 14:56:10;;;;;;;11.57;6.40;;;;;;;;;;5066202;28;20121;-62
2021/11/16 14:58:56;;;;;;;10.88;6.45;;;;;;;;;;5054445;28;20116;-73
2021/11/16 15:02:08;;;;;;;25.40;16.85;;;;;;;;;;5056079;28;20040;-59
2021/11/16 15:04:54;;;;;;;13.98;9.38;;;;;;;;;;5055543;28;20067;-60
2021/11/16 15:07:39;;;;;;;11.98;7.03;;;;;;;;;;5029299;28;20033;-60
2021/11/16 15:10:25;;;;;;;11.23;7.10;;;;;;;;;;5033172;28;20041;-62
2021/11/16 15:13:10;;;;;;;11.85;6.97;;;;;;;;;;5055785;28;20434;-63
2021/11/16 15:15:56;;;;;;;11.80;6.70;;;;;;;;;;5054438;28;20047;-61
2021/11/16 15:19:16;;;;;;;12.32;7.38;;;;;;;;;;5041765;28;20036;-63
2021/11/16 15:25:14;;;;;;;12.55;7.45;;;;;;;;;;5020150;28;20041;-63
2021/11/16 15:28:02;;;;;;;14.40;8.02;;;;;;;;;;5047495;28;20056;-59
2021/11/16 15:30:58;;;;;;;12.15;6.75;;;;;;;;;;5017732;28;20025;-60
2021/11/16 15:33:47;;;;;;;11.98;7.50;;;;;;;;;;5043343;28;20035;-59
2021/11/16 15:36:37;;;;;;;18.23;13.48;;;;;;;;;;5054096;28;20039;-62
2021/11/16 15:39:22;;;;;;;13.63;6.88;;;;;;;;;;5055753;28;20438;-60
2021/11/16 15:42:08;;;;;;;10.77;5.88;;;;;;;;;;5068385;28;20036;-61
2021/11/16 15:45:03;;;;;;;11.70;5.25;;;;;;;;;;5065259;28;20047;-62
2021/11/16 15:48:07;;;;;;;10.80;5.88;;;;;;;;;;5047282;28;20535;-62
2021/11/16 15:51:11;;;;;;;8.98;5.45;;;;;;;;;;5038473;28;20033;-61
2021/11/16 16:00:19;;;;;;;8.30;4.78;;;;;;;;;;5055007;28;20028;-61
2021/11/16 16:03:09;;;;;;;9.63;5.60;;;;;;;;;;5054016;28;20090;-60
2021/11/16 16:06:21;;;;;;;9.35;4.90;;;;;;;;;;5034963;28;20041;-62
2021/11/16 16:09:08;;;;;;;9.25;5.47;;;;;;;;;;5034418;28;20025;-63
2021/11/16 16:11:55;;;;;;;73.60;47.53;;;;;;;;;;5053451;28;20113;-67
2021/11/16 16:14:42;;;;;;;21.60;14.50;;;;;;;;;;5054597;28;20094;-69
2021/11/16 16:17:32;;;;;;;10.48;5.97;;;;;;;;;;5052929;28;20033;-64
2021/11/16 16:20:18;;;;;;;9.93;5.72;;;;;;;;;;5040667;28;20107;-61
2021/11/16 16:23:03;;;;;;;10.82;6.38;;;;;;;;;;5049225;28;20056;-65
2021/11/16 16:25:49;;;;;;;10.77;6.30;;;;;;;;;;5039905;28;20036;-62
2021/11/16 16:28:41;;;;;;;10.15;6.13;;;;;;;;;;5048278;28;20039;-61
2021/11/16 16:31:26;;;;;;;10.82;5.82;;;;;;;;;;5054098;28;20471;-62
2021/11/16 16:34:12;;;;;;;9.80;5.68;;;;;;;;;;5067060;28;20029;-62
2021/11/16 16:36:59;;;;;;;9.05;5.57;;;;;;;;;;5054464;28;20530;-60
2021/11/16 16:39:45;;;;;;;9.68;5.47;;;;;;;;;;5050061;28;20140;-62
2021/11/16 16:42:30;;;;;;;8.77;5.60;;;;;;;;;;5043744;28;20041;-61
2021/11/16 16:45:19;;;;;;;12.30;6.32;;;;;;;;;;5068356;28;20038;-61
2021/11/16 16:48:04;;;;;;;12.73;7.47;;;;;;;;;;5049282;28;20032;-60
2021/11/16 16:50:49;;;;;;;12.15;6.97;;;;;;;;;;5054407;28;20647;-63
2021/11/16 16:53:35;;;;;;;10.00;5.90;;;;;;;;;;5062162;28;20052;-69
2021/11/16 16:56:26;;;;;;;20.58;12.75;;;;;;;;;;5041804;28;20111;-67